createdAt,value
2016-04-16T00:00:14.993Z,74.08
2016-04-16T00:01:15.027Z,73.99
2016-04-16T00:02:15.061Z,73.8
2016-04-16T00:03:15.111Z,73.89
2016-04-16T00:04:15.130Z,73.99
2016-04-16T00:05:15.163Z,73.36
2016-04-16T00:06:15.213Z,73.55
2016-04-16T00:07:15.246Z,73.45
2016-04-16T00:08:15.265Z,73.93
2016-04-16T00:09:15.315Z,73.74
2016-04-16T00:10:15.348Z,72.97
2016-04-16T00:11:15.366Z,73.17
2016-04-16T00:12:15.400Z,72.41
2016-04-16T00:13:15.450Z,72.69
2016-04-16T00:14:15.484Z,71.83
2016-04-16T00:15:15.518Z,71.93
2016-04-16T00:16:15.552Z,71.64
2016-04-16T00:17:15.587Z,71.26
2016-04-16T00:18:15.620Z,72.12
2016-04-16T00:19:15.670Z,71.73
2016-04-16T00:20:15.687Z,71.83
2016-04-16T00:21:15.722Z,71.64
2016-04-16T00:22:15.771Z,71.83
2016-04-16T00:23:15.806Z,71.26
2016-04-16T00:24:15.824Z,71.36
2016-04-16T00:25:15.858Z,71.45
2016-04-16T00:26:15.892Z,71.17
2016-04-16T00:27:15.941Z,71.26
2016-04-16T00:28:15.975Z,71.26
2016-04-16T00:29:16.009Z,71.45
2016-04-16T00:30:16.058Z,71.07
2016-04-16T00:31:16.077Z,71.45
2016-04-16T00:32:16.110Z,71.26
2016-04-16T00:33:16.144Z,70.97
2016-04-16T00:34:16.194Z,70.78
2016-04-16T00:35:16.213Z,70.31
2016-04-16T00:36:16.247Z,70.02
2016-04-16T00:37:16.280Z,70.02
2016-04-16T00:38:16.330Z,70.31
2016-04-16T00:39:16.379Z,69.93
2016-04-16T00:40:16.382Z,70.5
2016-04-16T00:41:16.447Z,70.12
2016-04-16T00:42:16.465Z,69.74
2016-04-16T00:43:16.515Z,70.02
2016-04-16T00:44:16.533Z,70.12
2016-04-16T00:45:16.598Z,70.21
2016-04-16T00:46:16.445Z,70.31
2016-04-16T00:47:16.651Z,70.02
2016-04-16T00:48:16.685Z,69.74
2016-04-16T00:49:16.719Z,70.21
2016-04-16T00:50:16.768Z,69.93
2016-04-16T00:51:16.787Z,69.74
2016-04-16T00:52:16.820Z,69.74
2016-04-16T00:53:16.871Z,69.93
2016-04-16T00:54:16.904Z,69.74
2016-04-16T00:55:16.923Z,69.83
2016-04-16T00:56:16.957Z,70.12
2016-04-16T00:57:16.990Z,69.93
2016-04-16T00:58:17.040Z,70.21
2016-04-16T00:59:17.089Z,69.74
2016-04-16T01:00:17.108Z,69.74
2016-04-16T01:01:17.141Z,69.83
2016-04-16T01:02:17.160Z,69.54
2016-04-16T01:03:17.053Z,69.45
2016-04-16T01:04:17.259Z,69.26
2016-04-16T01:05:17.278Z,69.74
2016-04-16T01:06:17.343Z,70.02
2016-04-16T01:07:17.346Z,69.93
2016-04-16T01:08:17.379Z,70.12
2016-04-16T01:09:17.413Z,69.64
2016-04-16T01:10:17.447Z,69.74
2016-04-16T01:11:17.481Z,69.07
2016-04-16T01:12:17.530Z,69.54
2016-04-16T01:13:17.548Z,69.54
2016-04-16T01:14:17.583Z,68.59
2016-04-16T01:15:17.617Z,68.53
2016-04-16T01:16:17.651Z,68.59
2016-04-16T01:17:17.715Z,68.63
2016-04-16T01:18:17.734Z,68.63
2016-04-16T01:19:17.784Z,68.44
2016-04-16T01:20:17.817Z,68.44
2016-04-16T01:21:17.852Z,68.53
2016-04-16T01:22:17.870Z,68.05
2016-04-16T01:23:17.935Z,68.44
2016-04-16T01:24:17.937Z,68.05
2016-04-16T01:25:18.003Z,68.05
2016-04-16T01:26:18.021Z,68.05
2016-04-16T01:27:18.055Z,67.96
2016-04-16T01:28:18.073Z,68.05
2016-04-16T01:29:18.139Z,68.82
2016-04-16T01:30:18.157Z,68.63
2016-04-16T01:31:18.191Z,68.44
2016-04-16T01:32:18.241Z,68.15
2016-04-16T01:33:18.258Z,68.34
2016-04-16T01:34:18.293Z,67.96
2016-04-16T01:35:18.530Z,67.96
2016-04-16T01:36:18.391Z,67.96
2016-04-16T01:37:18.394Z,68.24
2016-04-16T01:38:18.429Z,67.48
2016-04-16T01:39:18.477Z,67.48
2016-04-16T01:40:18.527Z,68.05
2016-04-16T01:41:18.562Z,68.15
2016-04-16T01:42:18.595Z,68.05
2016-04-16T01:43:18.613Z,68.05
2016-04-16T01:44:18.648Z,67.96
2016-04-16T01:45:18.698Z,68.05
2016-04-16T01:46:18.732Z,67.58
2016-04-16T01:47:18.750Z,67.77
2016-04-16T01:48:18.815Z,67.68
2016-04-16T01:49:18.834Z,67.48
2016-04-16T01:50:18.929Z,67.39
2016-04-16T01:51:18.901Z,67.86
2016-04-16T01:52:18.950Z,67.86
2016-04-16T01:53:18.969Z,67.96
2016-04-16T01:54:19.003Z,67.86
2016-04-16T01:55:19.037Z,67.86
2016-04-16T01:56:19.087Z,67.58
2016-04-16T01:57:19.105Z,67.86
2016-04-16T01:58:19.154Z,67.2
2016-04-16T01:59:19.188Z,67.1
2016-04-16T02:00:19.238Z,67.2
2016-04-16T02:01:19.271Z,67.48
2016-04-16T02:02:19.305Z,67
2016-04-16T02:03:19.343Z,67.39
2016-04-16T02:04:19.361Z,67.48
2016-04-16T02:05:19.645Z,66.91
2016-04-16T02:06:19.461Z,67.29
2016-04-16T02:07:19.495Z,67.48
2016-04-16T02:08:19.513Z,67.86
2016-04-16T02:09:19.547Z,67.77
2016-04-16T02:10:19.565Z,67.77
2016-04-16T02:11:19.631Z,67.77
2016-04-16T02:12:19.650Z,67.68
2016-04-16T02:13:19.683Z,67.86
2016-04-16T02:14:19.717Z,67.86
2016-04-16T02:15:19.766Z,68.24
2016-04-16T02:16:19.785Z,67.96
2016-04-16T02:17:19.818Z,67.86
2016-04-16T02:18:19.852Z,67.96
2016-04-16T02:19:19.886Z,67.96
2016-04-16T02:20:19.999Z,68.15
2016-04-16T02:21:19.969Z,68.34
2016-04-16T02:22:20.007Z,68.82
2016-04-16T02:23:20.040Z,68.72
2016-04-16T02:24:20.074Z,69.68
2016-04-16T02:25:20.107Z,69.83
2016-04-16T02:26:20.142Z,69.93
2016-04-16T02:27:20.176Z,69.74
2016-04-16T02:28:20.209Z,70.31
2016-04-16T02:29:20.244Z,70.31
2016-04-16T02:30:20.278Z,70.21
2016-04-16T02:31:20.312Z,71.07
2016-04-16T02:32:20.361Z,70.5
2016-04-16T02:33:20.395Z,70.69
2016-04-16T02:34:20.428Z,70.78
2016-04-16T02:35:20.462Z,70.5
2016-04-16T02:36:20.512Z,70.5
2016-04-16T02:37:20.531Z,70.59
2016-04-16T02:38:20.565Z,70.97
2016-04-16T02:39:20.598Z,70.69
2016-04-16T02:40:20.633Z,71.07
2016-04-16T02:41:20.666Z,70.78
2016-04-16T02:42:20.731Z,71.26
2016-04-16T02:43:20.765Z,70.97
2016-04-16T02:44:20.840Z,70.97
2016-04-16T02:45:20.902Z,70.88
2016-04-16T02:46:20.978Z,71.17
2016-04-16T02:47:21.055Z,71.07
2016-04-16T02:48:21.131Z,71.45
2016-04-16T02:49:21.197Z,71.26
2016-04-16T02:50:21.246Z,71.45
2016-04-16T02:51:21.280Z,71.45
2016-04-16T02:52:21.329Z,71.17
2016-04-16T02:53:21.380Z,71.26
2016-04-16T02:54:21.419Z,71.26
2016-04-16T02:55:21.458Z,71.73
2016-04-16T02:56:21.498Z,71.93
2016-04-16T02:57:21.538Z,72.17
2016-04-16T02:58:21.577Z,72.17
2016-04-16T02:59:21.613Z,72.12
2016-04-16T03:00:21.649Z,72.31
2016-04-16T03:01:21.700Z,72.17
2016-04-16T03:02:21.737Z,72.5
2016-04-16T03:03:21.804Z,72.27
2016-04-16T03:04:21.807Z,72.46
2016-04-16T03:05:21.858Z,72.17
2016-04-16T03:06:21.876Z,72.31
2016-04-16T03:07:21.912Z,72.27
2016-04-16T03:08:21.962Z,72.46
2016-04-16T03:09:21.980Z,72.46
2016-04-16T03:10:22.030Z,72.41
2016-04-16T03:11:22.050Z,72.85
2016-04-16T03:12:22.100Z,72.75
2016-04-16T03:13:22.118Z,73.13
2016-04-16T03:14:22.151Z,72.85
2016-04-16T03:15:22.186Z,72.75
2016-04-16T03:16:22.236Z,72.85
2016-04-16T03:17:22.284Z,72.75
2016-04-16T03:18:22.334Z,73.03
2016-04-16T03:19:22.336Z,72.85
2016-04-16T03:20:22.387Z,72.85
2016-04-16T03:21:22.405Z,72.78
2016-04-16T03:22:22.439Z,72.65
2016-04-16T03:23:22.488Z,73.07
2016-04-16T03:24:22.507Z,72.88
2016-04-16T03:25:22.540Z,72.31
2016-04-16T03:26:22.590Z,72.31
2016-04-16T03:27:22.608Z,72.6
2016-04-16T03:28:22.658Z,72.12
2016-04-16T03:29:22.708Z,72.02
2016-04-16T03:30:22.726Z,71.83
2016-04-16T03:31:22.744Z,71.73
2016-04-16T03:32:22.794Z,71.55
2016-04-16T03:33:22.843Z,71.45
2016-04-16T03:34:22.877Z,71.64
2016-04-16T03:35:22.895Z,71.36
2016-04-16T03:36:22.929Z,71.17
2016-04-16T03:37:22.963Z,71.36
2016-04-16T03:38:22.998Z,71.73
2016-04-16T03:39:23.031Z,71.45
2016-04-16T03:40:23.065Z,71.45
2016-04-16T03:41:23.115Z,70.78
2016-04-16T03:42:23.164Z,71.26
2016-04-16T03:43:23.184Z,71.07
2016-04-16T03:44:23.201Z,70.97
2016-04-16T03:45:23.251Z,70.92
2016-04-16T03:46:23.284Z,71.01
2016-04-16T03:47:23.303Z,70.92
2016-04-16T03:48:23.368Z,71.01
2016-04-16T03:49:23.386Z,70.92
2016-04-16T03:50:23.420Z,71.11
2016-04-16T03:51:23.454Z,70.92
2016-04-16T03:52:23.489Z,71.11
2016-04-16T03:53:23.538Z,70.72
2016-04-16T03:54:23.556Z,70.72
2016-04-16T03:55:23.590Z,70.72
2016-04-16T03:56:23.639Z,70.53
2016-04-16T03:57:23.658Z,70.44
2016-04-16T03:58:23.691Z,70.63
2016-04-16T03:59:23.726Z,70.44
2016-04-16T04:00:23.759Z,70.15
2016-04-16T04:01:23.824Z,70.15
2016-04-16T04:02:23.843Z,70.15
2016-04-16T04:03:23.862Z,69.96
2016-04-16T04:04:23.911Z,70.53
2016-04-16T04:05:23.960Z,69.2
2016-04-16T04:06:23.979Z,69.87
2016-04-16T04:07:24.012Z,69.39
2016-04-16T04:08:24.046Z,69.87
2016-04-16T04:09:24.096Z,69.87
2016-04-16T04:10:24.115Z,69.58
2016-04-16T04:11:24.149Z,69.68
2016-04-16T04:12:24.182Z,69.48
2016-04-16T04:13:24.248Z,70.25
2016-04-16T04:14:24.266Z,69.29
2016-04-16T04:15:24.300Z,69.68
2016-04-16T04:16:24.350Z,69.48
2016-04-16T04:17:24.383Z,69.39
2016-04-16T04:18:24.433Z,69.48
2016-04-16T04:19:24.436Z,69.29
2016-04-16T04:20:24.486Z,69.39
2016-04-16T04:21:24.504Z,69.58
2016-04-16T04:22:24.538Z,69.77
2016-04-16T04:23:24.572Z,69.58
2016-04-16T04:24:24.621Z,69.2
2016-04-16T04:25:24.655Z,69.29
2016-04-16T04:26:24.673Z,69.48
2016-04-16T04:27:24.722Z,69.29
2016-04-16T04:28:24.757Z,69.58
2016-04-16T04:29:24.775Z,69.58
2016-04-16T04:30:24.825Z,69.68
2016-04-16T04:31:24.843Z,69.2
2016-04-16T04:32:24.893Z,69.1
2016-04-16T04:33:24.926Z,68.82
2016-04-16T04:34:24.977Z,68.63
2016-04-16T04:35:24.994Z,68.72
2016-04-16T04:36:25.029Z,68.63
2016-04-16T04:37:25.063Z,68.82
2016-04-16T04:38:25.112Z,68.76
2016-04-16T04:39:25.130Z,68.82
2016-04-16T04:40:25.179Z,68.57
2016-04-16T04:41:25.214Z,68.82
2016-04-16T04:42:25.247Z,68.85
2016-04-16T04:43:25.282Z,68.82
2016-04-16T04:44:25.331Z,68.53
2016-04-16T04:45:25.365Z,68.82
2016-04-16T04:46:25.384Z,68.66
2016-04-16T04:47:25.417Z,68.76
2016-04-16T04:48:25.451Z,68.24
2016-04-16T04:49:25.485Z,68.66
2016-04-16T04:50:25.534Z,69.23
2016-04-16T04:51:25.553Z,68.76
2016-04-16T04:52:25.603Z,68.85
2016-04-16T04:53:25.637Z,68.76
2016-04-16T04:54:25.655Z,68.85
2016-04-16T04:55:25.705Z,68.76
2016-04-16T04:56:25.754Z,68.66
2016-04-16T04:57:25.772Z,68.85
2016-04-16T04:58:25.805Z,68.76
2016-04-16T04:59:25.856Z,68.76
2016-04-16T05:00:25.874Z,68.85
2016-04-16T05:01:25.908Z,68.66
2016-04-16T05:02:25.958Z,68.76
2016-04-16T05:03:25.991Z,68.47
2016-04-16T05:04:26.010Z,68.47
2016-04-16T05:05:26.074Z,68.57
2016-04-16T05:06:26.109Z,67.8
2016-04-16T05:07:26.143Z,68.18
2016-04-16T05:08:26.196Z,68.38
2016-04-16T05:09:26.213Z,68.18
2016-04-16T05:10:26.248Z,67.99
2016-04-16T05:11:26.265Z,67.9
2016-04-16T05:12:26.301Z,68.18
2016-04-16T05:13:26.334Z,67.99
2016-04-16T05:14:26.368Z,67.61
2016-04-16T05:15:26.418Z,67.61
2016-04-16T05:16:26.436Z,67.8
2016-04-16T05:17:26.469Z,67.14
2016-04-16T05:18:26.503Z,67.99
2016-04-16T05:19:26.537Z,67.9
2016-04-16T05:20:26.587Z,67.33
2016-04-16T05:21:26.606Z,67.23
2016-04-16T05:22:26.656Z,67.8
2016-04-16T05:23:26.689Z,67.33
2016-04-16T05:24:26.739Z,67.23
2016-04-16T05:25:26.757Z,67.33
2016-04-16T05:26:26.806Z,67.33
2016-04-16T05:27:26.840Z,67.14
2016-04-16T05:28:26.859Z,66.85
2016-04-16T05:29:26.892Z,66.85
2016-04-16T05:30:26.927Z,66.38
2016-04-16T05:31:26.992Z,66.47
2016-04-16T05:32:27.011Z,66.47
2016-04-16T05:33:27.044Z,67.04
2016-04-16T05:34:27.077Z,66.38
2016-04-16T05:35:27.112Z,66.47
2016-04-16T05:36:27.146Z,66.38
2016-04-16T05:37:27.196Z,66.66
2016-04-16T05:38:27.213Z,66.75
2016-04-16T05:39:27.263Z,66.38
2016-04-16T05:40:27.282Z,66.85
2016-04-16T05:41:27.316Z,66.38
2016-04-16T05:42:27.349Z,66.47
2016-04-16T05:43:27.415Z,66.66
2016-04-16T05:44:27.417Z,66.85
2016-04-16T05:45:27.467Z,66.75
2016-04-16T05:46:27.501Z,66.38
2016-04-16T05:47:27.550Z,66.94
2016-04-16T05:48:27.554Z,66.85
2016-04-16T05:49:27.603Z,66.94
2016-04-16T05:50:27.653Z,67.33
2016-04-16T05:51:27.670Z,66.85
2016-04-16T05:52:27.720Z,66.94
2016-04-16T05:53:27.754Z,66.75
2016-04-16T05:54:27.772Z,66.75
2016-04-16T05:55:27.806Z,66.56
2016-04-16T05:56:27.856Z,67.52
2016-04-16T05:57:27.874Z,66.94
2016-04-16T05:58:27.924Z,67.23
2016-04-16T05:59:27.957Z,67.99
2016-04-16T06:00:27.992Z,68.09
2016-04-16T06:01:28.025Z,68.47
2016-04-16T06:02:28.060Z,68.95
2016-04-16T06:03:28.093Z,68.85
2016-04-16T06:04:28.127Z,68.66
2016-04-16T06:05:28.177Z,68.85
2016-04-16T06:06:28.195Z,69.62
2016-04-16T06:07:28.244Z,69.48
2016-04-16T06:08:28.263Z,70.15
2016-04-16T06:09:28.296Z,69.87
2016-04-16T06:10:28.346Z,70.15
2016-04-16T06:11:28.396Z,70.34
2016-04-16T06:12:28.415Z,69.87
2016-04-16T06:13:28.465Z,70.15
2016-04-16T06:14:28.482Z,70.25
2016-04-16T06:15:28.532Z,70.63
2016-04-16T06:16:28.566Z,69.96
2016-04-16T06:17:28.601Z,69.96
2016-04-16T06:18:28.618Z,70.25
2016-04-16T06:19:28.652Z,69.77
2016-04-16T06:20:28.701Z,68.72
2016-04-16T06:21:28.736Z,68.82
2016-04-16T06:22:28.769Z,68.57
2016-04-16T06:23:28.820Z,68.76
2016-04-16T06:24:28.837Z,68.95
2016-04-16T06:25:28.887Z,68.85
2016-04-16T06:26:28.906Z,68.85
2016-04-16T06:27:28.939Z,68.28
2016-04-16T06:28:28.988Z,67.99
2016-04-16T06:29:29.023Z,67.99
2016-04-16T06:30:29.041Z,67.52
2016-04-16T06:31:29.075Z,67.42
2016-04-16T06:32:29.140Z,66.85
2016-04-16T06:33:29.158Z,66.28
2016-04-16T06:34:29.192Z,65.61
2016-04-16T06:35:29.241Z,65.8
2016-04-16T06:36:29.277Z,65.7
2016-04-16T06:37:29.294Z,65.23
2016-04-16T06:38:29.328Z,65.23
2016-04-16T06:39:29.362Z,64.85
2016-04-16T06:40:29.396Z,65.52
2016-04-16T06:41:29.430Z,65.52
2016-04-16T06:42:29.496Z,65.13
2016-04-16T06:43:29.514Z,64.85
2016-04-16T06:44:29.548Z,64.94
2016-04-16T06:45:29.582Z,64.09
2016-04-16T06:46:29.599Z,64.18
2016-04-16T06:47:29.634Z,63.99
2016-04-16T06:48:29.559Z,64.28
2016-04-16T06:49:29.717Z,64.37
2016-04-16T06:50:29.751Z,64.37
2016-04-16T06:51:29.801Z,64.56
2016-04-16T06:52:29.835Z,64.37
2016-04-16T06:53:29.884Z,64.28
2016-04-16T06:54:29.903Z,64.09
2016-04-16T06:55:29.937Z,63.99
2016-04-16T06:56:29.970Z,64.09
2016-04-16T06:57:30.004Z,64.28
2016-04-16T06:58:30.039Z,63.6
2016-04-16T06:59:30.088Z,63.7
2016-04-16T07:00:30.137Z,63.99
2016-04-16T07:01:30.140Z,63.64
2016-04-16T07:02:30.189Z,63.54
2016-04-16T07:03:30.224Z,63.45
2016-04-16T07:04:30.273Z,62.97
2016-04-16T07:05:30.291Z,63.07
2016-04-16T07:06:30.325Z,62.59
2016-04-16T07:07:30.360Z,62.78
2016-04-16T07:08:30.408Z,63.07
2016-04-16T07:09:30.443Z,62.49
2016-04-16T07:10:30.460Z,62.49
2016-04-16T07:11:30.511Z,63.35
2016-04-16T07:12:30.545Z,63.07
2016-04-16T07:13:30.578Z,63.35
2016-04-16T07:14:30.629Z,63.64
2016-04-16T07:15:30.662Z,63.73
2016-04-16T07:16:30.696Z,63.35
2016-04-16T07:17:30.715Z,63.6
2016-04-16T07:18:30.779Z,63.13
2016-04-16T07:19:30.782Z,63.6
2016-04-16T07:20:30.847Z,63.6
2016-04-16T07:21:30.709Z,63.32
2016-04-16T07:22:30.884Z,63.51
2016-04-16T07:23:30.933Z,63.35
2016-04-16T07:24:30.998Z,63.07
2016-04-16T07:25:31.017Z,62.3
2016-04-16T07:26:31.067Z,62.3
2016-04-16T07:27:31.100Z,61.92
2016-04-16T07:28:31.119Z,61.83
2016-04-16T07:29:31.153Z,61.83
2016-04-16T07:30:31.187Z,61.83
2016-04-16T07:31:31.628Z,61.25
2016-04-16T07:32:31.255Z,61.16
2016-04-16T07:33:31.305Z,61.07
2016-04-16T07:34:31.322Z,61.16
2016-04-16T07:35:31.372Z,60.61
2016-04-16T07:36:31.422Z,60.42
2016-04-16T07:37:31.455Z,60.61
2016-04-16T07:38:31.474Z,60.42
2016-04-16T07:39:31.507Z,60.33
2016-04-16T07:40:31.541Z,60.24
2016-04-16T07:41:31.592Z,60.02
2016-04-16T07:42:31.624Z,60.21
2016-04-16T07:43:31.659Z,60.04
2016-04-16T07:44:31.709Z,59.56
2016-04-16T07:45:31.727Z,58.99
2016-04-16T07:46:31.777Z,58.7
2016-04-16T07:47:31.796Z,58.7
2016-04-16T07:48:31.829Z,59.09
2016-04-16T07:49:31.863Z,59.28
2016-04-16T07:50:31.912Z,59.09
2016-04-16T07:51:32.024Z,58.7
2016-04-16T07:52:31.981Z,58.23
2016-04-16T07:53:32.046Z,58.23
2016-04-16T07:54:32.064Z,57.75
2016-04-16T07:55:32.098Z,57.75
2016-04-16T07:56:32.148Z,57.46
2016-04-16T07:57:32.182Z,57.18
2016-04-16T07:58:32.214Z,56.73
2016-04-16T07:59:32.233Z,56.25
2016-04-16T08:00:32.284Z,55.3
2016-04-16T08:01:32.317Z,54.47
2016-04-16T08:02:32.350Z,54.72
2016-04-16T08:03:32.385Z,54.25
2016-04-16T08:04:32.434Z,54.47
2016-04-16T08:05:32.469Z,54.15
2016-04-16T08:06:32.658Z,54.37
2016-04-16T08:07:32.536Z,53.61
2016-04-16T08:08:32.570Z,53.03
2016-04-16T08:09:32.605Z,52.75
2016-04-16T08:10:32.685Z,52.46
2016-04-16T08:11:32.688Z,51.24
2016-04-16T08:12:32.721Z,51.05
2016-04-16T08:13:32.787Z,52.1
2016-04-16T08:14:32.805Z,51.72
2016-04-16T08:15:32.870Z,52.26
2016-04-16T08:16:32.889Z,52.46
2016-04-16T08:17:32.912Z,52.26
2016-04-16T08:18:32.962Z,52.46
2016-04-16T08:19:32.980Z,52.26
2016-04-16T08:20:33.029Z,52.17
2016-04-16T08:21:33.047Z,52.17
2016-04-16T08:22:33.098Z,52.17
2016-04-16T08:23:33.147Z,51.98
2016-04-16T08:24:33.025Z,53.1
2016-04-16T08:25:33.214Z,53.1
2016-04-16T08:26:33.264Z,53
2016-04-16T08:27:33.298Z,53.67
2016-04-16T08:28:33.331Z,53.29
2016-04-16T08:29:33.381Z,53.65
2016-04-16T08:30:33.416Z,54.53
2016-04-16T08:31:33.450Z,54.7
2016-04-16T08:32:33.499Z,54.22
2016-04-16T08:33:33.517Z,54.41
2016-04-16T08:34:33.552Z,54.89
2016-04-16T08:35:33.585Z,54.44
2016-04-16T08:36:33.728Z,54.44
2016-04-16T08:37:33.669Z,54.91
2016-04-16T08:38:33.718Z,55.01
2016-04-16T08:39:33.736Z,55.46
2016-04-16T08:40:33.786Z,55.27
2016-04-16T08:41:33.820Z,55.46
2016-04-16T08:42:33.869Z,55.08
2016-04-16T08:43:33.888Z,54.63
2016-04-16T08:44:33.922Z,53.2
2016-04-16T08:45:33.800Z,53.41
2016-04-16T08:46:34.021Z,52.08
2016-04-16T08:47:34.040Z,51.43
2016-04-16T08:48:34.073Z,52.36
2016-04-16T08:49:34.123Z,53.03
2016-04-16T08:50:34.157Z,53.58
2016-04-16T08:51:34.269Z,54.15
2016-04-16T08:52:34.240Z,54.15
2016-04-16T08:53:34.274Z,53.1
2016-04-16T08:54:34.293Z,50.09
2016-04-16T08:55:34.342Z,49.43
2016-04-16T08:56:34.407Z,50
2016-04-16T08:57:34.441Z,48.28
2016-04-16T08:58:34.459Z,47.73
2016-04-16T08:59:34.493Z,48.85
2016-04-16T09:00:34.543Z,49.52
2016-04-16T09:01:34.561Z,49.98
2016-04-16T09:02:34.595Z,50.64
2016-04-16T09:03:34.630Z,50.52
2016-04-16T09:04:34.694Z,51.48
2016-04-16T09:05:34.728Z,51.38
2016-04-16T09:06:34.778Z,51.48
2016-04-16T09:07:34.797Z,50.52
2016-04-16T09:08:34.814Z,49.88
2016-04-16T09:09:34.864Z,50.16
2016-04-16T09:10:34.898Z,49.98
2016-04-16T09:11:34.947Z,50.64
2016-04-16T09:12:34.966Z,50.9
2016-04-16T09:13:34.999Z,50.62
2016-04-16T09:14:35.049Z,50.43
2016-04-16T09:15:35.083Z,50.52
2016-04-16T09:16:35.133Z,50.04
2016-04-16T09:17:35.152Z,50.24
2016-04-16T09:18:35.200Z,49.57
2016-04-16T09:19:35.250Z,48.64
2016-04-16T09:20:35.268Z,48.93
2016-04-16T09:21:35.349Z,48.07
2016-04-16T09:22:35.351Z,48.44
2016-04-16T09:23:35.387Z,48.44
2016-04-16T09:24:35.436Z,48.35
2016-04-16T09:25:35.470Z,48.25
2016-04-16T09:26:35.503Z,47.8
2016-04-16T09:27:35.537Z,48.35
2016-04-16T09:28:35.587Z,48.64
2016-04-16T09:29:35.621Z,48.66
2016-04-16T09:30:35.656Z,49.02
2016-04-16T09:31:35.705Z,48.73
2016-04-16T09:32:35.723Z,48.93
2016-04-16T09:33:36.022Z,49.21
2016-04-16T09:34:35.806Z,48.83
2016-04-16T09:35:35.855Z,48.73
2016-04-16T09:36:35.921Z,46.56
2016-04-16T09:37:35.924Z,47.2
2016-04-16T09:38:35.974Z,46.34
2016-04-16T09:39:36.008Z,46.53
2016-04-16T09:40:36.057Z,45.77
2016-04-16T09:41:36.075Z,46.25
2016-04-16T09:42:36.109Z,45.96
2016-04-16T09:43:36.143Z,45.77
2016-04-16T09:44:36.192Z,45.96
2016-04-16T09:45:36.226Z,45.96
2016-04-16T09:46:36.260Z,45.87
2016-04-16T09:47:36.310Z,46.15
2016-04-16T09:48:36.343Z,46.44
2016-04-16T09:49:36.393Z,45.87
2016-04-16T09:50:36.412Z,46.15
2016-04-16T09:51:36.509Z,45.67
2016-04-16T09:52:36.496Z,45.77
2016-04-16T09:53:36.514Z,45.67
2016-04-16T09:54:36.563Z,45.87
2016-04-16T09:55:36.612Z,45.67
2016-04-16T09:56:36.631Z,45.67
2016-04-16T09:57:36.696Z,45.29
2016-04-16T09:58:36.714Z,46.15
2016-04-16T09:59:36.764Z,45.48
2016-04-16T10:00:36.782Z,45.2
2016-04-16T10:01:36.832Z,45.01
2016-04-16T10:02:36.882Z,45.67
2016-04-16T10:03:36.916Z,45.29
2016-04-16T10:04:36.933Z,45.96
2016-04-16T10:05:36.983Z,45.77
2016-04-16T10:06:37.017Z,45.98
2016-04-16T10:07:37.052Z,45.79
2016-04-16T10:08:37.101Z,46.08
2016-04-16T10:09:37.150Z,45.77
2016-04-16T10:10:37.169Z,45.87
2016-04-16T10:11:37.203Z,45.96
2016-04-16T10:12:37.236Z,45.87
2016-04-16T10:13:37.271Z,45.58
2016-04-16T10:14:37.321Z,46.15
2016-04-16T10:15:37.370Z,46.15
2016-04-16T10:16:37.404Z,45.96
2016-04-16T10:17:37.438Z,46.03
2016-04-16T10:18:37.471Z,46.22
2016-04-16T10:19:37.505Z,46.25
2016-04-16T10:20:37.539Z,47.3
2016-04-16T10:21:37.604Z,47.2
2016-04-16T10:22:37.607Z,47.01
2016-04-16T10:23:37.641Z,47.2
2016-04-16T10:24:37.691Z,47.01
2016-04-16T10:25:37.740Z,46.61
2016-04-16T10:26:37.759Z,47.08
2016-04-16T10:27:37.808Z,46.25
2016-04-16T10:28:37.826Z,46.25
2016-04-16T10:29:37.875Z,45.67
2016-04-16T10:30:37.925Z,45.51
2016-04-16T10:31:37.959Z,45.89
2016-04-16T10:32:37.994Z,46.08
2016-04-16T10:33:38.027Z,45.22
2016-04-16T10:34:38.045Z,45.98
2016-04-16T10:35:38.095Z,45.6
2016-04-16T10:36:38.130Z,46.08
2016-04-16T10:37:38.164Z,44.93
2016-04-16T10:38:38.213Z,45.31
2016-04-16T10:39:38.247Z,45.58
2016-04-16T10:40:38.280Z,45.96
2016-04-16T10:41:38.330Z,45.39
2016-04-16T10:42:38.364Z,44.43
2016-04-16T10:43:38.414Z,45.03
2016-04-16T10:44:38.432Z,45.58
2016-04-16T10:45:38.482Z,46.25
2016-04-16T10:46:38.516Z,46.53
2016-04-16T10:47:38.549Z,47.01
2016-04-16T10:48:38.583Z,47.39
2016-04-16T10:49:38.632Z,47.11
2016-04-16T10:50:38.667Z,46.34
2016-04-16T10:51:38.747Z,45.77
2016-04-16T10:52:38.734Z,45.58
2016-04-16T10:53:38.768Z,45.6
2016-04-16T10:54:38.803Z,45.89
2016-04-16T10:55:38.851Z,44.84
2016-04-16T10:56:38.886Z,45.03
2016-04-16T10:57:38.920Z,44.65
2016-04-16T10:58:38.970Z,44.55
2016-04-16T10:59:39.004Z,44.93
2016-04-16T11:00:39.038Z,45.01
2016-04-16T11:01:39.087Z,44.43
2016-04-16T11:02:39.121Z,45.58
2016-04-16T11:03:39.170Z,45.01
2016-04-16T11:04:39.189Z,46.06
2016-04-16T11:05:39.222Z,46.15
2016-04-16T11:06:39.256Z,46.53
2016-04-16T11:07:39.291Z,47.68
2016-04-16T11:08:39.325Z,49.85
2016-04-16T11:09:39.359Z,50.9
2016-04-16T11:10:39.408Z,51.76
2016-04-16T11:11:39.442Z,51.29
2016-04-16T11:12:39.476Z,51.76
2016-04-16T11:13:39.510Z,51.09
2016-04-16T11:14:39.543Z,51.29
2016-04-16T11:15:39.593Z,51.76
2016-04-16T11:16:39.627Z,52.24
2016-04-16T11:17:39.661Z,52.05
2016-04-16T11:18:39.710Z,51.86
2016-04-16T11:19:39.745Z,53.2
2016-04-16T11:20:39.779Z,51.19
2016-04-16T11:21:40.047Z,50.9
2016-04-16T11:22:39.846Z,51.48
2016-04-16T11:23:39.881Z,51.67
2016-04-16T11:24:39.930Z,51.86
2016-04-16T11:25:39.964Z,51.48
2016-04-16T11:26:39.998Z,52.05
2016-04-16T11:27:40.032Z,51.95
2016-04-16T11:28:40.081Z,51.95
2016-04-16T11:29:40.115Z,51.67
2016-04-16T11:30:40.149Z,51.48
2016-04-16T11:31:40.184Z,51.89
2016-04-16T11:32:40.217Z,51.12
2016-04-16T11:33:40.251Z,50.45
2016-04-16T11:34:40.301Z,50.84
2016-04-16T11:35:40.334Z,50.64
2016-04-16T11:36:40.369Z,50.55
2016-04-16T11:37:40.403Z,50.93
2016-04-16T11:38:40.452Z,50.45
2016-04-16T11:39:40.486Z,50.07
2016-04-16T11:40:40.520Z,50.04
2016-04-16T11:41:40.569Z,50.45
2016-04-16T11:42:40.588Z,50.55
2016-04-16T11:43:40.638Z,50.55
2016-04-16T11:44:40.671Z,49.59
2016-04-16T11:45:40.705Z,49.49
2016-04-16T11:46:40.755Z,49.98
2016-04-16T11:47:40.788Z,49.49
2016-04-16T11:48:40.807Z,49.59
2016-04-16T11:49:40.841Z,50.07
2016-04-16T11:50:40.934Z,50.93
2016-04-16T11:51:41.012Z,52.75
2016-04-16T11:52:41.309Z,53.8
2016-04-16T11:53:41.168Z,54.37
2016-04-16T11:54:41.277Z,55.9
2016-04-16T11:55:41.313Z,56.28
2016-04-16T11:56:41.362Z,55.71
2016-04-16T11:57:41.427Z,54.27
2016-04-16T11:58:41.477Z,55.32
2016-04-16T11:59:41.527Z,53.13
2016-04-16T12:00:41.581Z,54.11
2016-04-16T12:01:41.638Z,53.25
2016-04-16T12:02:41.662Z,53.34
2016-04-16T12:03:41.717Z,52.2
2016-04-16T12:04:41.757Z,52.2
2016-04-16T12:05:41.839Z,51.53
2016-04-16T12:06:41.829Z,51.05
2016-04-16T12:07:41.881Z,50.48
2016-04-16T12:08:41.901Z,50.57
2016-04-16T12:09:41.938Z,50.19
2016-04-16T12:10:41.988Z,50.86
2016-04-16T12:11:42.039Z,49.14
2016-04-16T12:12:42.058Z,49.33
2016-04-16T12:13:42.092Z,49.04
2016-04-16T12:14:42.143Z,47.92
2016-04-16T12:15:42.208Z,47.25
2016-04-16T12:16:42.227Z,47.34
2016-04-16T12:17:42.262Z,47.25
2016-04-16T12:18:42.280Z,45.91
2016-04-16T12:19:42.331Z,45.91
2016-04-16T12:20:42.380Z,45.72
2016-04-16T12:21:42.398Z,46.1
2016-04-16T12:22:42.447Z,46.12
2016-04-16T12:23:42.481Z,45.55
2016-04-16T12:24:42.516Z,44.88
2016-04-16T12:25:42.659Z,46.01
2016-04-16T12:26:42.583Z,45.91
2016-04-16T12:27:42.633Z,45.91
2016-04-16T12:28:42.667Z,46.1
2016-04-16T12:29:42.716Z,46.1
2016-04-16T12:30:42.766Z,44.86
2016-04-16T12:31:42.800Z,45.81
2016-04-16T12:32:42.819Z,45.81
2016-04-16T12:33:42.852Z,45.72
2016-04-16T12:34:42.901Z,46.3
2016-04-16T12:35:42.936Z,45.62
2016-04-16T12:36:42.969Z,45.91
2016-04-16T12:37:43.004Z,46.01
2016-04-16T12:38:43.054Z,46.01
2016-04-16T12:39:43.102Z,46.2
2016-04-16T12:40:43.121Z,45.72
2016-04-16T12:41:43.171Z,47.06
2016-04-16T12:42:43.204Z,48.75
2016-04-16T12:43:43.254Z,51.72
2016-04-16T12:44:43.288Z,53.03
2016-04-16T12:45:43.322Z,55.11
2016-04-16T12:46:43.356Z,57.5
2016-04-16T12:47:43.405Z,58.16
2016-04-16T12:48:43.424Z,58.23
2016-04-16T12:49:43.473Z,60.33
2016-04-16T12:50:43.492Z,61.57
2016-04-16T12:51:43.542Z,62.43
2016-04-16T12:52:43.591Z,63.26
2016-04-16T12:53:43.609Z,63.64
2016-04-16T12:54:43.642Z,64.4